Flight Track Log - Related Links

Times and Time Zones

All times are in EST time to prevent confusion due to time zone crossing. See the CPT1940 flight status page for this flight to view local times or setup timezone preferences in your user account.

Time Position Orientation Groundspeed Altitude Reporting Facility
EST Latitude Longitude Course Direction KTS MPH feet Rate Location/Type
Wed 05:33:15 PM 41.9353 -103.6789 310° West 109 125 7,500  Level Denver Center
Wed 05:34:17 PM 41.9544 -103.7100 310° West 112 129 8,600 1,016 Climbing Denver Center
Wed 05:35:19 PM 41.9775 -103.7464 310° West 113 130 9,600 726 Climbing Denver Center
Wed 05:36:21 PM 41.9981 -103.7797 310° West 117 135 10,100 242 Climbing Denver Center
Wed 05:37:23 PM 42.0217 -103.8158 311° West 126 145 10,100 -48 Level Denver Center
Wed 05:38:25 PM 42.0531 -103.8628 312° West 144 166 10,000  Descending Denver Center
Wed 05:39:27 PM 42.0769 -103.9011 310° West 143 165 10,100 48 Climbing Denver Center
Wed 05:40:29 PM 42.1056 -103.9461 311° West 141 162 10,100  Level Denver Center
Wed 05:41:31 PM 42.1294 -103.9853 309° West 141 162 10,100  Level Denver Center
Wed 05:42:33 PM 42.1569 -104.0281 311° West 138 159 10,100  Level Denver Center
Wed 05:43:35 PM 42.1806 -104.0669 309° West 138 159 10,100 -48 Level Denver Center
Wed 05:44:37 PM 42.2086 -104.1106 311° West 139 160 10,000  Descending Denver Center
Wed 05:45:39 PM 42.2311 -104.1469 310° West 135 155 10,100 48 Climbing Denver Center
Wed 05:46:41 PM 42.2600 -104.1911 311° West 137 158 10,100  Level Denver Center
Wed 05:47:43 PM 42.2847 -104.2303 310° West 141 162 10,100 -48 Level Denver Center
Wed 05:48:45 PM 42.3136 -104.2728 313° West 140 161 10,000  Descending Denver Center
Wed 05:49:47 PM 42.3319 -104.3058 307° West 127 146 10,100 48 Climbing Denver Center
Wed 05:50:49 PM 42.3506 -104.3386 308° West 118 136 10,100 -97 Level Denver Center
Wed 05:51:51 PM 42.3739 -104.3758 310° West 116 133 9,900 -97 Descending Denver Center
Wed 05:52:53 PM 42.3958 -104.4089 312° West 120 138 9,900  Level Denver Center
Wed 05:53:55 PM 42.4203 -104.4475 311° West 121 139 9,900  Level Denver Center
Wed 05:54:58 PM 42.4397 -104.4803 309° West 119 137 9,900  Level Denver Center
Wed 05:56:00 PM 42.4619 -104.5178 309° West 116 133 9,900 48 Level Denver Center
Wed 05:57:02 PM 42.4822 -104.5508 310° West 117 135 10,000  Climbing Denver Center
Wed 05:58:16 PM 42.5125 -104.5964 312° West 123 142 9,900 -44 Descending Denver Center
Wed 05:59:18 PM 42.5236 -104.6317 293° West 118 136 9,900  Level Denver Center
Wed 06:00:20 PM 42.5333 -104.6750 287° West 109 125 9,900 48 Level Denver Center
Wed 06:01:22 PM 42.5431 -104.7139 289° West 111 128 10,000 97 Climbing Denver Center
Wed 06:02:24 PM 42.5561 -104.7642 289° West 121 139 10,100 48 Climbing Denver Center
Wed 06:03:26 PM 42.5658 -104.8075 287° West 124 143 10,100  Level Denver Center
Wed 06:04:28 PM 42.5769 -104.8592 286° West 126 145 10,100  Level Denver Center
Wed 06:05:30 PM 42.5861 -104.9022 286° West 126 145 10,100  Level Denver Center
Wed 06:06:33 PM 42.5942 -104.9442 285° West 123 142 10,100  Level Denver Center
Wed 06:07:35 PM 42.6050 -104.9972 286° West 126 145 10,100  Level Denver Center
Wed 06:08:37 PM 42.6161 -105.0436 288° West 132 152 10,100  Level Denver Center
Wed 06:09:51 PM 42.6294 -105.1056 286° West 134 154 10,100  Level Denver Center
Wed 06:10:53 PM 42.6406 -105.1589 286° West 133 153 10,100  Level Denver Center
Wed 06:11:55 PM 42.6492 -105.2050 284° West 131 151 10,100  Level Denver Center
Wed 06:12:57 PM 42.6619 -105.2600 288° West 134 154 10,100  Level Denver Center
Wed 06:13:59 PM 42.6722 -105.3083 286° West 137 158 10,100  Level Denver Center
Wed 06:15:01 PM 42.6831 -105.3614 286° West 133 153 10,100  Level Denver Center
Wed 06:16:03 PM 42.6925 -105.4067 286° West 132 152 10,100  Level Denver Center
Wed 06:17:06 PM 42.7025 -105.4522 287° West 131 151 10,100  Level Denver Center
Wed 06:18:08 PM 42.7133 -105.5067 285° West 133 153 10,100  Level Denver Center
Wed 06:19:10 PM 42.7233 -105.5544 286° West 135 155 10,100  Level Denver Center
Wed 06:20:12 PM 42.7347 -105.6072 286° West 132 152 10,100  Level Denver Center
Wed 06:21:13 PM 42.7425 -105.6458 285° West 132 152 10,100  Level Denver Center
Wed 06:22:16 PM 42.7572 -105.7111 287° West 138 159 10,100 -48 Level Denver Center
Wed 06:23:18 PM 42.7667 -105.7575 286° West 136 157 10,000 -48 Descending Denver Center
Wed 06:24:20 PM 42.7778 -105.8122 285° West 135 155 10,000  Level Denver Center
Wed 06:25:22 PM 42.7875 -105.8647 284° West 142 163 10,000  Level Denver Center
Wed 06:26:24 PM 42.7997 -105.9222 286° West 144 166 10,000  Level Denver Center
Wed 06:27:26 PM 42.8147 -105.9678 294° West 140 161 10,000  Level Denver Center
Wed 06:28:28 PM 42.8394 -106.0169 304° West 138 159 10,000 -97 Level Denver Center
Wed 06:29:30 PM 42.8578 -106.0606 300° West 138 159 9,800 -532 Descending Denver Center
Wed 06:30:32 PM 42.8775 -106.1106 298° West 137 158 8,900 -823 Descending Denver Center
Wed 06:31:34 PM 42.8953 -106.1536 299° West 136 157 8,100 -726 Descending Denver Center
Wed 06:32:36 PM 42.9131 -106.1981 299° West 137 158 7,400 -581 Descending Denver Center
Wed 06:33:38 PM 42.9153 -106.2581 273° West 138 159 6,900 -242 Descending Denver Center
Wed 06:34:40 PM 42.9111 -106.3119 264° West 144 166 6,900 -48 Level Denver Center
Wed 06:35:42 PM 42.9108 -106.3703 270° West 146 168 6,800 -97 Descending Denver Center
Wed 06:37:00 PM 42.8981 -106.4425 289° West  Level FlightAware Approximate
Wed 06:44:00 PM 42.9000 -106.4500 289° West  Level FlightAware Approximate
Wed 06:45:00 PM 42.9080 -106.4644 289° West  Level Estimated
Wed 06:46:00 PM 42.9080 -106.4644 289° West  Level Estimated

Login

Don't have an account? Register now (free) for customized features, flight alerts, and more!